createdAt,value
2022-08-26T00:00:53.869Z,21.91
2022-08-26T00:06:32.806Z,21.82
2022-08-26T00:12:01.230Z,21.83
2022-08-26T00:17:36.292Z,21.86
2022-08-26T00:23:15.469Z,21.97
2022-08-26T00:26:06.274Z,21.86
2022-08-26T00:31:45.297Z,22.16
2022-08-26T00:34:35.250Z,22.04
2022-08-26T00:37:23.725Z,21.95
2022-08-26T00:43:07.006Z,21.85
2022-08-26T00:48:46.589Z,21.79
2022-08-26T00:54:30.942Z,21.86
2022-08-26T01:00:06.986Z,21.83
2022-08-26T01:02:56.628Z,21.79
2022-08-26T01:05:46.936Z,21.77
2022-08-26T01:11:21.463Z,21.84
2022-08-26T01:16:50.025Z,21.71
2022-08-26T01:22:32.596Z,21.65
2022-08-26T01:25:21.671Z,21.57
2022-08-26T01:28:16.242Z,21.56
2022-08-26T01:31:09.691Z,21.48
2022-08-26T01:36:58.614Z,21.50
2022-08-26T01:42:36.806Z,21.41
2022-08-26T01:48:16.987Z,21.30
2022-08-26T01:51:07.247Z,21.07
2022-08-26T01:56:45.803Z,21.25
2022-08-26T02:02:24.546Z,21.20
2022-08-26T02:07:58.223Z,21.15
2022-08-26T02:10:49.727Z,21.07
2022-08-26T02:16:32.689Z,21.22
2022-08-26T02:25:02.436Z,20.68
2022-08-26T02:27:51.807Z,20.61
2022-08-26T02:33:28.876Z,20.61
2022-08-26T02:39:06.155Z,20.60
2022-08-26T02:44:40.339Z,20.57
2022-08-26T02:47:28.907Z,20.45
2022-08-26T02:53:06.757Z,20.43
2022-08-26T02:55:56.157Z,20.43
2022-08-26T02:58:44.784Z,20.38
2022-08-26T03:04:19.651Z,20.37
2022-08-26T03:07:08.617Z,20.28
2022-08-26T03:09:57.869Z,20.32
2022-08-26T03:15:41.367Z,20.38
2022-08-26T03:21:19.602Z,20.39
2022-08-26T03:26:57.574Z,20.07
2022-08-26T03:32:28.624Z,20.04
2022-08-26T03:35:17.013Z,20.02
2022-08-26T03:38:08.060Z,20.08
2022-08-26T03:40:57.193Z,20.01
2022-08-26T03:46:26.757Z,20.10
2022-08-26T03:52:02.978Z,20.04
2022-08-26T03:57:41.673Z,19.96
2022-08-26T04:03:22.837Z,19.85
2022-08-26T04:06:13.795Z,19.82
2022-08-26T04:11:51.127Z,19.91
2022-08-26T04:17:17.527Z,19.87
2022-08-26T04:20:07.792Z,19.82
2022-08-26T04:22:58.346Z,19.87
2022-08-26T04:28:34.405Z,19.71
2022-08-26T04:34:10.940Z,19.78
2022-08-26T04:36:59.543Z,19.75
2022-08-26T04:42:36.624Z,19.76
2022-08-26T04:45:25.480Z,19.72
2022-08-26T04:51:01.973Z,19.74
2022-08-26T04:56:32.540Z,19.70
2022-08-26T04:59:21.956Z,19.69
2022-08-26T05:02:14.176Z,19.68
2022-08-26T05:07:48.626Z,19.82
2022-08-26T05:10:46.886Z,19.84
2022-08-26T05:16:17.571Z,20.02
2022-08-26T05:19:06.986Z,20.00
2022-08-26T05:24:48.827Z,19.99
2022-08-26T05:27:37.601Z,20.04
2022-08-26T05:30:27.569Z,20.66
2022-08-26T05:33:17.277Z,21.67
2022-08-26T05:36:10.398Z,22.50
2022-08-26T05:39:01.237Z,23.05
2022-08-26T05:44:53.695Z,23.96
2022-08-26T05:53:04.117Z,23.00
2022-08-26T05:58:43.805Z,22.49
2022-08-26T06:01:35.750Z,22.33
2022-08-26T06:06:55.390Z,22.13
2022-08-26T06:12:29.374Z,22.04
2022-08-26T06:18:00.177Z,21.97
2022-08-26T06:24:00.043Z,22.14
2022-08-26T06:26:51.531Z,22.18
2022-08-26T06:29:40.013Z,22.15
2022-08-26T06:32:29.066Z,22.18
2022-08-26T06:35:18.216Z,22.30
2022-08-26T06:40:54.844Z,22.42
2022-08-26T06:46:24.644Z,22.61
2022-08-26T06:52:00.775Z,22.73
2022-08-26T06:57:39.751Z,22.74
2022-08-26T07:00:31.309Z,22.69
2022-08-26T07:06:09.976Z,22.97
2022-08-26T07:09:04.960Z,22.99
2022-08-26T07:14:36.927Z,23.11
2022-08-26T07:17:25.328Z,22.92
2022-08-26T07:23:00.513Z,22.94
2022-08-26T07:28:34.364Z,23.88
2022-08-26T07:34:10.665Z,25.57
2022-08-26T07:39:48.333Z,26.06
2022-08-26T07:42:37.539Z,26.23
2022-08-26T07:48:13.636Z,26.82
2022-08-26T07:53:52.395Z,27.18
2022-08-26T07:59:24.248Z,27.28
2022-08-26T08:05:01.004Z,27.42
2022-08-26T08:07:49.460Z,27.35
2022-08-26T08:13:21.199Z,27.19
2022-08-26T08:18:59.237Z,26.90
2022-08-26T08:24:34.343Z,26.98
2022-08-26T08:27:36.885Z,27.15
2022-08-26T08:33:12.846Z,27.30
2022-08-26T08:41:49.817Z,26.74
2022-08-26T08:47:31.329Z,26.88
2022-08-26T08:53:16.451Z,26.91
2022-08-26T09:02:08.352Z,27.20
2022-08-26T09:08:08.357Z,27.28
2022-08-26T09:16:38.729Z,27.22
2022-08-26T09:22:13.188Z,27.59
2022-08-26T09:25:02.028Z,27.62
2022-08-26T09:30:41.032Z,27.96
2022-08-26T09:36:24.892Z,28.39
2022-08-26T09:42:22.943Z,28.23
2022-08-26T09:45:13.037Z,28.60
2022-08-26T09:50:53.209Z,29.03
2022-08-26T09:56:42.635Z,28.68
2022-08-26T10:02:27.566Z,28.85
2022-08-26T10:05:20.089Z,29.08
2022-08-26T10:11:05.255Z,29.31
2022-08-26T10:16:46.852Z,28.95
2022-08-26T10:22:28.604Z,28.93
2022-08-26T10:28:20.756Z,28.91
2022-08-26T10:31:14.776Z,28.88
2022-08-26T10:37:13.857Z,29.20
2022-08-26T10:39:57.264Z,28.93
2022-08-26T10:45:32.958Z,29.34
2022-08-26T10:51:11.349Z,29.56
2022-08-26T10:54:02.378Z,29.70
2022-08-26T10:59:44.261Z,29.73
2022-08-26T11:05:24.603Z,30.08
2022-08-26T11:11:38.264Z,29.64
2022-08-26T11:17:21.716Z,30.26
2022-08-26T11:23:10.277Z,30.59
2022-08-26T11:29:13.156Z,30.63
2022-08-26T11:34:59.148Z,30.84
2022-08-26T11:37:56.138Z,30.33
2022-08-26T11:43:34.385Z,30.08
2022-08-26T11:49:09.856Z,29.90
2022-08-26T11:55:05.180Z,30.53
2022-08-26T12:00:37.526Z,30.60
2022-08-26T12:09:30.647Z,30.01
2022-08-26T12:15:30.952Z,30.20
2022-08-26T12:21:14.094Z,29.70
2022-08-26T12:27:24.345Z,30.22
2022-08-26T12:30:19.317Z,30.23
2022-08-26T12:33:22.761Z,30.02
2022-08-26T12:36:02.172Z,30.19
2022-08-26T12:41:48.152Z,30.36
2022-08-26T12:47:39.022Z,30.33
2022-08-26T12:50:22.298Z,30.38
2022-08-26T12:56:03.447Z,30.69
2022-08-26T13:04:40.854Z,30.79
2022-08-26T13:10:34.906Z,30.72
2022-08-26T13:16:08.043Z,29.83
2022-08-26T13:21:47.700Z,30.27
2022-08-26T13:27:25.921Z,30.30
2022-08-26T13:33:02.157Z,29.84
2022-08-26T13:35:50.479Z,30.00
2022-08-26T13:44:02.705Z,30.44
2022-08-26T13:46:51.192Z,30.52
2022-08-26T13:52:30.081Z,30.31
2022-08-26T13:57:58.274Z,30.75
2022-08-26T14:00:47.139Z,30.60
2022-08-26T14:06:24.993Z,30.34
2022-08-26T14:12:03.227Z,30.57
2022-08-26T14:14:55.708Z,30.76
2022-08-26T14:17:44.429Z,30.74
2022-08-26T14:23:15.235Z,30.14
2022-08-26T14:31:29.196Z,30.54
2022-08-26T14:37:13.525Z,30.00
2022-08-26T14:40:00.729Z,29.88
2022-08-26T14:42:53.806Z,29.96
2022-08-26T14:45:45.434Z,30.02
2022-08-26T14:48:33.740Z,30.20
2022-08-26T14:54:12.457Z,30.60
2022-08-26T14:57:04.665Z,30.43
2022-08-26T15:02:37.172Z,29.90
2022-08-26T15:05:25.982Z,29.74
2022-08-26T15:08:15.823Z,29.51
2022-08-26T15:13:49.544Z,29.08
2022-08-26T15:19:25.173Z,28.66
2022-08-26T15:22:13.725Z,28.26
2022-08-26T15:25:01.960Z,27.86
2022-08-26T15:27:50.229Z,27.52
2022-08-26T15:30:39.419Z,27.32
2022-08-26T15:36:10.791Z,26.99
2022-08-26T15:41:49.616Z,26.89
2022-08-26T15:47:25.054Z,26.36
2022-08-26T15:53:07.525Z,26.34
2022-08-26T15:58:45.221Z,26.21
2022-08-26T16:01:34.173Z,25.91
2022-08-26T16:07:23.766Z,25.95
2022-08-26T16:13:01.275Z,26.02
2022-08-26T16:21:19.330Z,25.60
2022-08-26T16:24:08.921Z,25.56
2022-08-26T16:26:57.343Z,25.41
2022-08-26T16:29:45.710Z,25.41
2022-08-26T16:35:15.273Z,24.95
2022-08-26T16:40:54.196Z,25.10
2022-08-26T16:43:43.638Z,24.90
2022-08-26T16:49:17.521Z,24.80
2022-08-26T16:54:46.432Z,24.67
2022-08-26T16:57:38.203Z,24.69
2022-08-26T17:03:16.885Z,24.74
2022-08-26T17:08:55.285Z,24.52
2022-08-26T17:14:33.419Z,24.62
2022-08-26T17:20:14.287Z,24.67
2022-08-26T17:28:41.241Z,24.56
2022-08-26T17:31:35.825Z,24.38
2022-08-26T17:37:10.691Z,23.98
2022-08-26T17:39:59.311Z,23.51
2022-08-26T17:45:41.116Z,23.62
2022-08-26T17:48:29.792Z,23.50
2022-08-26T17:51:19.865Z,23.39
2022-08-26T17:56:49.444Z,23.24
2022-08-26T18:02:23.836Z,23.42
2022-08-26T18:05:13.380Z,23.34
2022-08-26T18:11:01.333Z,23.26
2022-08-26T18:13:49.830Z,23.10
2022-08-26T18:19:29.569Z,22.80
2022-08-26T18:25:07.454Z,22.57
2022-08-26T18:27:55.634Z,22.34
2022-08-26T18:33:31.511Z,22.18
2022-08-26T18:39:10.446Z,22.33
2022-08-26T18:44:47.620Z,22.23
2022-08-26T18:47:37.714Z,22.10
2022-08-26T18:53:14.715Z,22.10
2022-08-26T18:58:51.292Z,22.05
2022-08-26T19:04:37.228Z,22.16
2022-08-26T19:10:13.855Z,21.98
2022-08-26T19:13:06.734Z,21.81
2022-08-26T19:15:57.723Z,21.71
2022-08-26T19:21:38.054Z,21.43
2022-08-26T19:30:02.211Z,21.04
2022-08-26T19:32:51.172Z,20.89
2022-08-26T19:41:14.015Z,20.51
2022-08-26T19:44:02.769Z,20.62
2022-08-26T19:46:54.708Z,20.51
2022-08-26T19:52:32.473Z,20.43
2022-08-26T19:55:22.527Z,20.33
2022-08-26T20:01:10.076Z,20.39
2022-08-26T20:06:46.880Z,20.03
2022-08-26T20:12:23.128Z,19.84
2022-08-26T20:15:14.095Z,19.82
2022-08-26T20:21:03.474Z,20.09
2022-08-26T20:26:36.292Z,20.08
2022-08-26T20:32:36.318Z,19.71
2022-08-26T20:41:23.595Z,19.82
2022-08-26T20:44:24.311Z,19.98
2022-08-26T20:50:11.662Z,19.84
2022-08-26T20:53:00.935Z,19.81
2022-08-26T20:55:55.277Z,19.52
2022-08-26T20:58:49.624Z,19.64
2022-08-26T21:01:43.907Z,19.82
2022-08-26T21:10:22.738Z,19.83
2022-08-26T21:15:59.481Z,20.11
2022-08-26T21:24:23.723Z,19.93
2022-08-26T21:30:02.266Z,20.08
2022-08-26T21:38:29.149Z,20.10
2022-08-26T21:44:16.118Z,19.95
2022-08-26T21:47:09.696Z,19.83
2022-08-26T21:52:39.210Z,20.08
2022-08-26T22:00:54.621Z,20.31
2022-08-26T22:06:43.729Z,20.16
2022-08-26T22:12:23.613Z,20.26
2022-08-26T22:18:23.268Z,20.18
2022-08-26T22:21:16.819Z,20.19
2022-08-26T22:24:11.071Z,20.21
2022-08-26T22:29:47.854Z,20.27
2022-08-26T22:32:38.965Z,19.93
2022-08-26T22:41:09.767Z,19.69
2022-08-26T22:43:59.156Z,19.60
2022-08-26T22:46:48.305Z,19.59
2022-08-26T22:49:36.662Z,19.76
2022-08-26T22:52:26.287Z,19.62
2022-08-26T22:58:05.446Z,19.36
2022-08-26T23:03:41.230Z,19.38
2022-08-26T23:06:30.102Z,19.38
2022-08-26T23:09:19.398Z,19.47
2022-08-26T23:12:08.579Z,19.40
2022-08-26T23:17:42.496Z,19.54
2022-08-26T23:23:40.461Z,19.58
2022-08-26T23:26:29.011Z,19.58
2022-08-26T23:29:17.267Z,19.43
2022-08-26T23:34:58.597Z,19.49
2022-08-26T23:40:40.580Z,19.65
2022-08-26T23:43:29.339Z,19.44
2022-08-26T23:49:07.908Z,19.68
2022-08-26T23:54:45.175Z,19.65
